sensor_id;sensor_type;location;lat;lon;timestamp;temperature;humidity
7844;DHT22;3967;48.702;9.326;2023-10-09T00:01:44;14.70;98.90
7844;DHT22;3967;48.702;9.326;2023-10-09T00:04:13;14.70;98.90
7844;DHT22;3967;48.702;9.326;2023-10-09T00:06:43;14.70;99.00
7844;DHT22;3967;48.702;9.326;2023-10-09T00:09:11;14.70;98.90
7844;DHT22;3967;48.702;9.326;2023-10-09T00:11:44;14.60;99.10
7844;DHT22;3967;48.702;9.326;2023-10-09T00:14:11;14.50;99.30
7844;DHT22;3967;48.702;9.326;2023-10-09T00:16:39;14.40;99.90
7844;DHT22;3967;48.702;9.326;2023-10-09T00:19:14;14.20;99.90
7844;DHT22;3967;48.702;9.326;2023-10-09T00:21:41;13.90;99.90
7844;DHT22;3967;48.702;9.326;2023-10-09T00:24:08;13.90;99.90
7844;DHT22;3967;48.702;9.326;2023-10-09T00:26:48;14.00;99.90
7844;DHT22;3967;48.702;9.326;2023-10-09T00:29:15;14.10;99.90
7844;DHT22;3967;48.702;9.326;2023-10-09T00:31:52;14.10;99.90
7844;DHT22;3967;48.702;9.326;2023-10-09T00:34:30;14.10;99.90
7844;DHT22;3967;48.702;9.326;2023-10-09T00:37:09;14.20;99.90
7844;DHT22;3967;48.702;9.326;2023-10-09T00:39:50;14.20;99.90
7844;DHT22;3967;48.702;9.326;2023-10-09T00:42:24;14.20;99.90
7844;DHT22;3967;48.702;9.326;2023-10-09T00:45:00;14.10;99.90
7844;DHT22;3967;48.702;9.326;2023-10-09T00:47:34;14.10;99.90
7844;DHT22;3967;48.702;9.326;2023-10-09T00:50:08;14.20;99.90
7844;DHT22;3967;48.702;9.326;2023-10-09T00:52:53;14.30;99.90
7844;DHT22;3967;48.702;9.326;2023-10-09T00:55:27;14.40;99.90
7844;DHT22;3967;48.702;9.326;2023-10-09T00:58:14;14.40;99.50
7844;DHT22;3967;48.702;9.326;2023-10-09T01:00:42;14.40;99.30
7844;DHT22;3967;48.702;9.326;2023-10-09T01:03:17;14.30;99.20
7844;DHT22;3967;48.702;9.326;2023-10-09T01:08:24;14.30;99.30
7844;DHT22;3967;48.702;9.326;2023-10-09T01:11:01;14.30;99.20
7844;DHT22;3967;48.702;9.326;2023-10-09T01:13:37;14.30;99.10
7844;DHT22;3967;48.702;9.326;2023-10-09T01:16:23;14.20;99.30
7844;DHT22;3967;48.702;9.326;2023-10-09T01:18:52;14.20;99.30
7844;DHT22;3967;48.702;9.326;2023-10-09T01:21:20;14.20;99.20
7844;DHT22;3967;48.702;9.326;2023-10-09T01:23:52;14.20;99.00
7844;DHT22;3967;48.702;9.326;2023-10-09T01:29:06;14.20;99.20
7844;DHT22;3967;48.702;9.326;2023-10-09T01:31:37;14.20;99.20
7844;DHT22;3967;48.702;9.326;2023-10-09T01:34:10;14.20;99.10
7844;DHT22;3967;48.702;9.326;2023-10-09T01:36:39;14.20;99.10
7844;DHT22;3967;48.702;9.326;2023-10-09T01:39:06;14.00;99.70
7844;DHT22;3967;48.702;9.326;2023-10-09T01:41:49;14.00;99.90
7844;DHT22;3967;48.702;9.326;2023-10-09T01:44:18;14.10;99.90
7844;DHT22;3967;48.702;9.326;2023-10-09T01:46:45;14.10;99.90
7844;DHT22;3967;48.702;9.326;2023-10-09T01:49:13;14.10;99.90
7844;DHT22;3967;48.702;9.326;2023-10-09T01:51:57;14.10;99.90
7844;DHT22;3967;48.702;9.326;2023-10-09T01:54:39;14.10;99.90
7844;DHT22;3967;48.702;9.326;2023-10-09T01:57:13;14.10;99.90
7844;DHT22;3967;48.702;9.326;2023-10-09T01:59:41;14.00;99.90
7844;DHT22;3967;48.702;9.326;2023-10-09T02:02:11;14.10;99.90
7844;DHT22;3967;48.702;9.326;2023-10-09T02:05:01;14.10;99.90
7844;DHT22;3967;48.702;9.326;2023-10-09T02:07:37;14.10;99.90
7844;DHT22;3967;48.702;9.326;2023-10-09T02:10:11;13.90;99.90
7844;DHT22;3967;48.702;9.326;2023-10-09T02:13:00;14.00;99.90
7844;DHT22;3967;48.702;9.326;2023-10-09T02:15:38;13.90;99.90
7844;DHT22;3967;48.702;9.326;2023-10-09T02:18:21;13.80;99.90
7844;DHT22;3967;48.702;9.326;2023-10-09T02:21:07;13.80;99.90
7844;DHT22;3967;48.702;9.326;2023-10-09T02:23:35;13.70;99.90
7844;DHT22;3967;48.702;9.326;2023-10-09T02:26:14;13.60;99.90
7844;DHT22;3967;48.702;9.326;2023-10-09T02:28:46;13.60;99.90
7844;DHT22;3967;48.702;9.326;2023-10-09T02:31:27;13.60;99.90
7844;DHT22;3967;48.702;9.326;2023-10-09T02:34:03;13.60;99.90
7844;DHT22;3967;48.702;9.326;2023-10-09T02:36:32;13.60;99.90
7844;DHT22;3967;48.702;9.326;2023-10-09T02:39:01;13.50;99.90
7844;DHT22;3967;48.702;9.326;2023-10-09T02:41:32;13.60;99.90
7844;DHT22;3967;48.702;9.326;2023-10-09T02:44:01;13.60;99.90
7844;DHT22;3967;48.702;9.326;2023-10-09T02:46:38;13.60;99.90
7844;DHT22;3967;48.702;9.326;2023-10-09T02:49:07;13.60;99.90
7844;DHT22;3967;48.702;9.326;2023-10-09T02:51:36;13.50;99.90
7844;DHT22;3967;48.702;9.326;2023-10-09T02:54:09;13.60;99.90
7844;DHT22;3967;48.702;9.326;2023-10-09T02:56:46;13.60;99.90
7844;DHT22;3967;48.702;9.326;2023-10-09T02:59:32;13.50;99.90
7844;DHT22;3967;48.702;9.326;2023-10-09T03:01:59;13.50;99.90
7844;DHT22;3967;48.702;9.326;2023-10-09T03:04:29;13.50;99.90
7844;DHT22;3967;48.702;9.326;2023-10-09T03:06:59;13.50;99.90
7844;DHT22;3967;48.702;9.326;2023-10-09T03:09:26;13.40;99.90
7844;DHT22;3967;48.702;9.326;2023-10-09T03:11:57;13.30;99.90
7844;DHT22;3967;48.702;9.326;2023-10-09T03:14:35;13.30;99.90
7844;DHT22;3967;48.702;9.326;2023-10-09T03:17:05;13.40;99.90
7844;DHT22;3967;48.702;9.326;2023-10-09T03:19:32;13.40;99.90
7844;DHT22;3967;48.702;9.326;2023-10-09T03:22:08;13.40;99.90
7844;DHT22;3967;48.702;9.326;2023-10-09T03:24:38;13.50;99.90
7844;DHT22;3967;48.702;9.326;2023-10-09T03:27:06;13.50;99.90
7844;DHT22;3967;48.702;9.326;2023-10-09T03:29:32;13.50;99.90
7844;DHT22;3967;48.702;9.326;2023-10-09T03:32:00;13.40;99.90
7844;DHT22;3967;48.702;9.326;2023-10-09T03:34:27;13.40;99.90
7844;DHT22;3967;48.702;9.326;2023-10-09T03:36:54;13.30;99.90
7844;DHT22;3967;48.702;9.326;2023-10-09T03:39:47;13.30;99.90
7844;DHT22;3967;48.702;9.326;2023-10-09T03:42:15;13.20;99.90
7844;DHT22;3967;48.702;9.326;2023-10-09T03:44:49;13.20;99.90
7844;DHT22;3967;48.702;9.326;2023-10-09T03:47:20;13.10;99.90
7844;DHT22;3967;48.702;9.326;2023-10-09T03:49:51;12.80;99.90
7844;DHT22;3967;48.702;9.326;2023-10-09T03:52:20;12.90;99.90
7844;DHT22;3967;48.702;9.326;2023-10-09T03:54:46;12.80;99.90
7844;DHT22;3967;48.702;9.326;2023-10-09T03:57:13;12.80;99.90
7844;DHT22;3967;48.702;9.326;2023-10-09T03:59:46;12.90;99.90
7844;DHT22;3967;48.702;9.326;2023-10-09T04:02:14;12.90;99.90
7844;DHT22;3967;48.702;9.326;2023-10-09T04:04:43;13.00;99.90
7844;DHT22;3967;48.702;9.326;2023-10-09T04:07:14;13.00;99.90
7844;DHT22;3967;48.702;9.326;2023-10-09T04:09:44;12.90;99.90
7844;DHT22;3967;48.702;9.326;2023-10-09T04:12:29;13.00;99.90
7844;DHT22;3967;48.702;9.326;2023-10-09T04:14:57;13.10;99.90
7844;DHT22;3967;48.702;9.326;2023-10-09T04:17:28;13.10;99.90
7844;DHT22;3967;48.702;9.326;2023-10-09T04:20:03;13.10;99.90
7844;DHT22;3967;48.702;9.326;2023-10-09T04:22:45;13.00;99.90
7844;DHT22;3967;48.702;9.326;2023-10-09T04:25:26;13.10;99.90
7844;DHT22;3967;48.702;9.326;2023-10-09T04:28:00;13.10;99.90
7844;DHT22;3967;48.702;9.326;2023-10-09T04:30:40;13.10;99.90
7844;DHT22;3967;48.702;9.326;2023-10-09T04:33:10;13.10;99.90
7844;DHT22;3967;48.702;9.326;2023-10-09T04:36:08;13.20;99.90
7844;DHT22;3967;48.702;9.326;2023-10-09T04:38:49;13.20;99.90
7844;DHT22;3967;48.702;9.326;2023-10-09T04:41:31;13.10;99.90
7844;DHT22;3967;48.702;9.326;2023-10-09T04:44:00;13.10;99.90
7844;DHT22;3967;48.702;9.326;2023-10-09T04:46:46;13.10;99.90
7844;DHT22;3967;48.702;9.326;2023-10-09T04:49:33;13.20;99.90
7844;DHT22;3967;48.702;9.326;2023-10-09T04:52:24;13.10;99.90
7844;DHT22;3967;48.702;9.326;2023-10-09T04:54:58;13.20;99.90
7844;DHT22;3967;48.702;9.326;2023-10-09T04:57:39;13.30;99.90
7844;DHT22;3967;48.702;9.326;2023-10-09T05:00:14;13.20;99.90
7844;DHT22;3967;48.702;9.326;2023-10-09T05:03:02;13.10;99.90
7844;DHT22;3967;48.702;9.326;2023-10-09T05:05:58;13.20;99.90
7844;DHT22;3967;48.702;9.326;2023-10-09T05:08:26;13.20;99.90
7844;DHT22;3967;48.702;9.326;2023-10-09T05:10:55;13.20;99.90
7844;DHT22;3967;48.702;9.326;2023-10-09T05:13:25;13.10;99.90
7844;DHT22;3967;48.702;9.326;2023-10-09T05:16:13;13.20;99.90
7844;DHT22;3967;48.702;9.326;2023-10-09T05:18:45;13.30;99.90
7844;DHT22;3967;48.702;9.326;2023-10-09T05:21:23;13.20;99.90
7844;DHT22;3967;48.702;9.326;2023-10-09T05:24:01;13.20;99.90
7844;DHT22;3967;48.702;9.326;2023-10-09T05:26:44;13.10;99.90
7844;DHT22;3967;48.702;9.326;2023-10-09T05:29:15;13.00;99.90
7844;DHT22;3967;48.702;9.326;2023-10-09T05:32:06;13.10;99.90
7844;DHT22;3967;48.702;9.326;2023-10-09T05:34:40;13.00;99.90
7844;DHT22;3967;48.702;9.326;2023-10-09T05:37:32;13.10;99.90
7844;DHT22;3967;48.702;9.326;2023-10-09T05:40:10;13.00;99.90
7844;DHT22;3967;48.702;9.326;2023-10-09T05:42:43;13.10;99.90
7844;DHT22;3967;48.702;9.326;2023-10-09T05:45:17;13.10;99.90
7844;DHT22;3967;48.702;9.326;2023-10-09T05:47:53;13.20;99.90
7844;DHT22;3967;48.702;9.326;2023-10-09T05:50:20;13.30;99.90
7844;DHT22;3967;48.702;9.326;2023-10-09T05:52:55;13.30;99.90
7844;DHT22;3967;48.702;9.326;2023-10-09T05:55:23;13.30;99.90
7844;DHT22;3967;48.702;9.326;2023-10-09T05:57:54;13.30;99.90
7844;DHT22;3967;48.702;9.326;2023-10-09T06:00:39;13.30;99.90
7844;DHT22;3967;48.702;9.326;2023-10-09T06:03:25;13.30;99.90
7844;DHT22;3967;48.702;9.326;2023-10-09T06:05:53;13.30;99.90
7844;DHT22;3967;48.702;9.326;2023-10-09T06:08:20;13.30;99.90
7844;DHT22;3967;48.702;9.326;2023-10-09T06:10:53;13.40;99.90
7844;DHT22;3967;48.702;9.326;2023-10-09T06:13:56;13.40;99.90
7844;DHT22;3967;48.702;9.326;2023-10-09T06:16:44;13.40;99.90
7844;DHT22;3967;48.702;9.326;2023-10-09T06:19:49;13.30;99.90
7844;DHT22;3967;48.702;9.326;2023-10-09T06:22:16;13.40;99.90
7844;DHT22;3967;48.702;9.326;2023-10-09T06:25:01;13.60;99.90
7844;DHT22;3967;48.702;9.326;2023-10-09T06:27:35;13.50;99.90
7844;DHT22;3967;48.702;9.326;2023-10-09T06:30:02;13.40;99.90
7844;DHT22;3967;48.702;9.326;2023-10-09T06:32:50;13.40;99.90
7844;DHT22;3967;48.702;9.326;2023-10-09T06:35:24;13.40;99.90
7844;DHT22;3967;48.702;9.326;2023-10-09T06:37:58;13.40;99.90
7844;DHT22;3967;48.702;9.326;2023-10-09T06:40:29;13.50;99.90
7844;DHT22;3967;48.702;9.326;2023-10-09T06:43:14;13.50;99.90
7844;DHT22;3967;48.702;9.326;2023-10-09T06:45:44;13.50;99.90
7844;DHT22;3967;48.702;9.326;2023-10-09T06:48:12;13.50;99.90
7844;DHT22;3967;48.702;9.326;2023-10-09T06:51:06;13.60;99.90
7844;DHT22;3967;48.702;9.326;2023-10-09T06:53:52;13.60;99.90
7844;DHT22;3967;48.702;9.326;2023-10-09T06:56:25;13.50;99.90
7844;DHT22;3967;48.702;9.326;2023-10-09T06:59:00;13.50;99.90
7844;DHT22;3967;48.702;9.326;2023-10-09T07:01:45;13.60;99.90
7844;DHT22;3967;48.702;9.326;2023-10-09T07:04:31;13.70;99.90
7844;DHT22;3967;48.702;9.326;2023-10-09T07:06:58;13.60;99.90
7844;DHT22;3967;48.702;9.326;2023-10-09T07:09:25;13.60;99.90
7844;DHT22;3967;48.702;9.326;2023-10-09T07:12:09;13.70;99.90
7844;DHT22;3967;48.702;9.326;2023-10-09T07:14:47;13.90;99.90
7844;DHT22;3967;48.702;9.326;2023-10-09T07:17:16;13.80;99.90
7844;DHT22;3967;48.702;9.326;2023-10-09T07:19:50;13.90;99.90
7844;DHT22;3967;48.702;9.326;2023-10-09T07:22:20;13.90;99.90
7844;DHT22;3967;48.702;9.326;2023-10-09T07:24:53;14.00;99.90
7844;DHT22;3967;48.702;9.326;2023-10-09T07:27:40;14.10;99.90
7844;DHT22;3967;48.702;9.326;2023-10-09T07:30:16;14.10;99.90
7844;DHT22;3967;48.702;9.326;2023-10-09T07:33:08;14.20;99.90
7844;DHT22;3967;48.702;9.326;2023-10-09T07:35:38;14.20;99.90
7844;DHT22;3967;48.702;9.326;2023-10-09T07:38:08;14.20;99.90
7844;DHT22;3967;48.702;9.326;2023-10-09T07:40:38;14.10;99.90
7844;DHT22;3967;48.702;9.326;2023-10-09T07:43:24;14.20;99.90
7844;DHT22;3967;48.702;9.326;2023-10-09T07:46:07;14.20;99.90
7844;DHT22;3967;48.702;9.326;2023-10-09T07:49:15;14.40;99.90
7844;DHT22;3967;48.702;9.326;2023-10-09T07:51:51;14.50;99.90
7844;DHT22;3967;48.702;9.326;2023-10-09T07:54:19;14.50;99.90
7844;DHT22;3967;48.702;9.326;2023-10-09T07:56:59;14.60;99.90
7844;DHT22;3967;48.702;9.326;2023-10-09T07:59:44;14.70;99.90
7844;DHT22;3967;48.702;9.326;2023-10-09T08:02:34;14.60;99.90
7844;DHT22;3967;48.702;9.326;2023-10-09T08:05:03;14.60;99.90
7844;DHT22;3967;48.702;9.326;2023-10-09T08:07:33;14.70;99.90
7844;DHT22;3967;48.702;9.326;2023-10-09T08:10:23;14.90;99.90
7844;DHT22;3967;48.702;9.326;2023-10-09T08:12:49;15.10;99.90
7844;DHT22;3967;48.702;9.326;2023-10-09T08:15:17;15.20;99.90
7844;DHT22;3967;48.702;9.326;2023-10-09T08:17:53;15.30;99.90
7844;DHT22;3967;48.702;9.326;2023-10-09T08:20:27;15.30;99.90
7844;DHT22;3967;48.702;9.326;2023-10-09T08:23:03;15.50;99.90
7844;DHT22;3967;48.702;9.326;2023-10-09T08:25:31;15.70;99.90
7844;DHT22;3967;48.702;9.326;2023-10-09T08:28:01;15.80;99.90
7844;DHT22;3967;48.702;9.326;2023-10-09T08:30:56;15.90;99.90
7844;DHT22;3967;48.702;9.326;2023-10-09T08:33:23;16.10;99.90
7844;DHT22;3967;48.702;9.326;2023-10-09T08:35:56;16.20;99.90
7844;DHT22;3967;48.702;9.326;2023-10-09T08:38:32;16.30;99.20
7844;DHT22;3967;48.702;9.326;2023-10-09T08:41:10;16.50;98.70
7844;DHT22;3967;48.702;9.326;2023-10-09T08:43:54;16.70;98.70
7844;DHT22;3967;48.702;9.326;2023-10-09T08:46:27;16.70;98.50
7844;DHT22;3967;48.702;9.326;2023-10-09T08:48:56;16.80;96.40
7844;DHT22;3967;48.702;9.326;2023-10-09T08:51:27;16.90;95.80
7844;DHT22;3967;48.702;9.326;2023-10-09T08:53:56;17.00;95.00
7844;DHT22;3967;48.702;9.326;2023-10-09T08:56:23;17.10;94.50
7844;DHT22;3967;48.702;9.326;2023-10-09T08:58:52;17.20;93.60
7844;DHT22;3967;48.702;9.326;2023-10-09T09:01:20;17.30;93.70
7844;DHT22;3967;48.702;9.326;2023-10-09T09:03:53;17.30;93.20
7844;DHT22;3967;48.702;9.326;2023-10-09T09:06:22;17.30;92.80
7844;DHT22;3967;48.702;9.326;2023-10-09T09:08:50;17.40;92.70
7844;DHT22;3967;48.702;9.326;2023-10-09T09:11:22;17.50;92.40
7844;DHT22;3967;48.702;9.326;2023-10-09T09:14:02;17.60;92.60
7844;DHT22;3967;48.702;9.326;2023-10-09T09:16:33;17.60;92.70
7844;DHT22;3967;48.702;9.326;2023-10-09T09:21:42;17.80;92.30
7844;DHT22;3967;48.702;9.326;2023-10-09T09:24:11;17.90;91.40
7844;DHT22;3967;48.702;9.326;2023-10-09T09:27:01;18.10;90.50
7844;DHT22;3967;48.702;9.326;2023-10-09T09:29:45;18.30;89.80
7844;DHT22;3967;48.702;9.326;2023-10-09T09:32:29;18.40;88.90
7844;DHT22;3967;48.702;9.326;2023-10-09T09:35:02;18.50;90.10
7844;DHT22;3967;48.702;9.326;2023-10-09T09:37:32;18.60;90.80
7844;DHT22;3967;48.702;9.326;2023-10-09T09:40:20;18.70;91.10
7844;DHT22;3967;48.702;9.326;2023-10-09T09:43:12;18.80;90.30
7844;DHT22;3967;48.702;9.326;2023-10-09T09:45:49;19.00;90.40
7844;DHT22;3967;48.702;9.326;2023-10-09T09:48:19;19.10;90.30
7844;DHT22;3967;48.702;9.326;2023-10-09T09:50:47;19.30;90.10
7844;DHT22;3967;48.702;9.326;2023-10-09T09:53:15;19.40;87.80
7844;DHT22;3967;48.702;9.326;2023-10-09T09:55:52;19.50;88.80
7844;DHT22;3967;48.702;9.326;2023-10-09T09:58:24;19.50;88.80
7844;DHT22;3967;48.702;9.326;2023-10-09T10:01:03;19.60;88.90
7844;DHT22;3967;48.702;9.326;2023-10-09T10:03:46;19.70;88.20
7844;DHT22;3967;48.702;9.326;2023-10-09T10:06:14;19.80;87.80
7844;DHT22;3967;48.702;9.326;2023-10-09T10:08:47;19.90;86.70
7844;DHT22;3967;48.702;9.326;2023-10-09T10:11:41;20.00;86.10
7844;DHT22;3967;48.702;9.326;2023-10-09T10:14:08;20.10;86.30
7844;DHT22;3967;48.702;9.326;2023-10-09T10:20:01;20.30;86.00
7844;DHT22;3967;48.702;9.326;2023-10-09T10:22:40;20.30;88.00
7844;DHT22;3967;48.702;9.326;2023-10-09T10:28:16;20.60;86.40
7844;DHT22;3967;48.702;9.326;2023-10-09T10:30:46;20.70;84.30
7844;DHT22;3967;48.702;9.326;2023-10-09T10:33:13;20.80;84.50
7844;DHT22;3967;48.702;9.326;2023-10-09T10:35:43;20.90;85.30
7844;DHT22;3967;48.702;9.326;2023-10-09T10:40:52;20.90;83.70
7844;DHT22;3967;48.702;9.326;2023-10-09T10:43:26;21.00;84.00
7844;DHT22;3967;48.702;9.326;2023-10-09T10:46:03;21.10;84.00
7844;DHT22;3967;48.702;9.326;2023-10-09T10:48:51;21.10;83.80
7844;DHT22;3967;48.702;9.326;2023-10-09T10:51:26;21.20;84.00
7844;DHT22;3967;48.702;9.326;2023-10-09T10:54:05;21.30;83.50
7844;DHT22;3967;48.702;9.326;2023-10-09T10:57:14;21.40;84.00
7844;DHT22;3967;48.702;9.326;2023-10-09T10:59:49;21.50;83.40
7844;DHT22;3967;48.702;9.326;2023-10-09T11:02:17;21.50;82.80
7844;DHT22;3967;48.702;9.326;2023-10-09T11:04:55;21.50;82.60
7844;DHT22;3967;48.702;9.326;2023-10-09T11:07:25;21.60;82.60
7844;DHT22;3967;48.702;9.326;2023-10-09T11:09:55;21.60;81.90
7844;DHT22;3967;48.702;9.326;2023-10-09T11:12:28;21.60;81.70
7844;DHT22;3967;48.702;9.326;2023-10-09T11:15:31;21.70;81.50
7844;DHT22;3967;48.702;9.326;2023-10-09T11:18:13;21.80;81.10
7844;DHT22;3967;48.702;9.326;2023-10-09T11:20:50;21.80;80.30
7844;DHT22;3967;48.702;9.326;2023-10-09T11:23:44;21.80;78.00
7844;DHT22;3967;48.702;9.326;2023-10-09T11:26:34;21.90;77.10
7844;DHT22;3967;48.702;9.326;2023-10-09T11:29:11;22.00;76.30
7844;DHT22;3967;48.702;9.326;2023-10-09T11:32:19;22.10;75.30
7844;DHT22;3967;48.702;9.326;2023-10-09T11:35:09;22.20;73.90
7844;DHT22;3967;48.702;9.326;2023-10-09T11:37:40;22.30;74.20
7844;DHT22;3967;48.702;9.326;2023-10-09T11:40:32;22.40;74.00
7844;DHT22;3967;48.702;9.326;2023-10-09T11:43:19;22.50;74.80
7844;DHT22;3967;48.702;9.326;2023-10-09T11:46:09;22.50;71.80
7844;DHT22;3967;48.702;9.326;2023-10-09T11:49:07;22.50;72.90
7844;DHT22;3967;48.702;9.326;2023-10-09T11:51:46;22.50;72.10
7844;DHT22;3967;48.702;9.326;2023-10-09T11:54:33;22.60;72.20
7844;DHT22;3967;48.702;9.326;2023-10-09T11:57:03;22.50;71.60
7844;DHT22;3967;48.702;9.326;2023-10-09T11:59:30;22.50;72.00
7844;DHT22;3967;48.702;9.326;2023-10-09T12:02:08;22.40;74.40
7844;DHT22;3967;48.702;9.326;2023-10-09T12:04:40;22.50;77.10
7844;DHT22;3967;48.702;9.326;2023-10-09T12:07:12;22.40;77.40
7844;DHT22;3967;48.702;9.326;2023-10-09T12:09:39;22.50;78.00
7844;DHT22;3967;48.702;9.326;2023-10-09T12:12:07;22.50;78.50
7844;DHT22;3967;48.702;9.326;2023-10-09T12:14:37;22.60;78.60
7844;DHT22;3967;48.702;9.326;2023-10-09T12:17:05;22.70;79.30
7844;DHT22;3967;48.702;9.326;2023-10-09T12:19:37;22.70;78.70
7844;DHT22;3967;48.702;9.326;2023-10-09T12:22:07;22.70;78.50
7844;DHT22;3967;48.702;9.326;2023-10-09T12:24:42;22.70;77.80
7844;DHT22;3967;48.702;9.326;2023-10-09T12:27:10;22.70;76.00
7844;DHT22;3967;48.702;9.326;2023-10-09T12:29:38;22.80;74.80
7844;DHT22;3967;48.702;9.326;2023-10-09T12:32:16;22.80;73.10
7844;DHT22;3967;48.702;9.326;2023-10-09T12:34:46;22.90;71.60
7844;DHT22;3967;48.702;9.326;2023-10-09T12:37:17;23.00;72.70
7844;DHT22;3967;48.702;9.326;2023-10-09T12:39:47;23.00;72.00
7844;DHT22;3967;48.702;9.326;2023-10-09T12:42:14;23.20;71.50
7844;DHT22;3967;48.702;9.326;2023-10-09T12:44:43;23.20;71.10
7844;DHT22;3967;48.702;9.326;2023-10-09T12:47:11;23.20;70.50
7844;DHT22;3967;48.702;9.326;2023-10-09T12:49:38;23.20;71.10
7844;DHT22;3967;48.702;9.326;2023-10-09T12:52:09;23.30;70.80
7844;DHT22;3967;48.702;9.326;2023-10-09T12:54:56;23.40;70.80
7844;DHT22;3967;48.702;9.326;2023-10-09T12:57:24;23.40;70.00
7844;DHT22;3967;48.702;9.326;2023-10-09T12:59:53;23.50;69.70
7844;DHT22;3967;48.702;9.326;2023-10-09T13:02:19;23.50;69.40
7844;DHT22;3967;48.702;9.326;2023-10-09T13:04:59;23.60;68.60
7844;DHT22;3967;48.702;9.326;2023-10-09T13:07:32;23.70;68.70
7844;DHT22;3967;48.702;9.326;2023-10-09T13:09:59;23.70;68.10
7844;DHT22;3967;48.702;9.326;2023-10-09T13:12:35;23.70;67.90
7844;DHT22;3967;48.702;9.326;2023-10-09T13:15:09;23.70;68.00
7844;DHT22;3967;48.702;9.326;2023-10-09T13:17:37;23.70;68.20
7844;DHT22;3967;48.702;9.326;2023-10-09T13:20:05;23.70;66.80
7844;DHT22;3967;48.702;9.326;2023-10-09T13:22:42;23.70;67.10
7844;DHT22;3967;48.702;9.326;2023-10-09T13:25:10;23.70;67.20
7844;DHT22;3967;48.702;9.326;2023-10-09T13:28:00;23.80;68.10
7844;DHT22;3967;48.702;9.326;2023-10-09T13:30:31;23.90;67.70
7844;DHT22;3967;48.702;9.326;2023-10-09T13:33:06;24.00;67.60
7844;DHT22;3967;48.702;9.326;2023-10-09T13:35:36;24.10;66.70
7844;DHT22;3967;48.702;9.326;2023-10-09T13:38:12;24.10;65.70
7844;DHT22;3967;48.702;9.326;2023-10-09T13:40:38;24.20;66.30
7844;DHT22;3967;48.702;9.326;2023-10-09T13:43:05;24.30;66.60
7844;DHT22;3967;48.702;9.326;2023-10-09T13:45:38;24.30;65.90
7844;DHT22;3967;48.702;9.326;2023-10-09T13:48:05;24.40;63.10
7844;DHT22;3967;48.702;9.326;2023-10-09T13:50:38;24.40;63.10
7844;DHT22;3967;48.702;9.326;2023-10-09T13:53:09;24.50;63.40
7844;DHT22;3967;48.702;9.326;2023-10-09T13:55:38;24.50;63.40
7844;DHT22;3967;48.702;9.326;2023-10-09T13:58:10;24.60;62.30
7844;DHT22;3967;48.702;9.326;2023-10-09T14:00:44;24.70;60.80
7844;DHT22;3967;48.702;9.326;2023-10-09T14:03:13;24.90;60.10
7844;DHT22;3967;48.702;9.326;2023-10-09T14:05:40;24.90;58.40
7844;DHT22;3967;48.702;9.326;2023-10-09T14:08:23;24.90;58.00
7844;DHT22;3967;48.702;9.326;2023-10-09T14:10:50;25.10;58.20
7844;DHT22;3967;48.702;9.326;2023-10-09T14:13:16;25.10;56.20
7844;DHT22;3967;48.702;9.326;2023-10-09T14:15:52;25.20;56.90
7844;DHT22;3967;48.702;9.326;2023-10-09T14:18:21;25.30;56.30
7844;DHT22;3967;48.702;9.326;2023-10-09T14:20:49;25.30;53.00
7844;DHT22;3967;48.702;9.326;2023-10-09T14:23:16;25.40;54.20
7844;DHT22;3967;48.702;9.326;2023-10-09T14:25:47;25.30;56.10
7844;DHT22;3967;48.702;9.326;2023-10-09T14:28:16;25.40;55.70
7844;DHT22;3967;48.702;9.326;2023-10-09T14:30:46;25.30;53.90
7844;DHT22;3967;48.702;9.326;2023-10-09T14:33:17;25.30;50.80
7844;DHT22;3967;48.702;9.326;2023-10-09T14:35:49;25.10;50.40
7844;DHT22;3967;48.702;9.326;2023-10-09T14:38:18;25.10;50.70
7844;DHT22;3967;48.702;9.326;2023-10-09T14:40:55;25.10;50.10
7844;DHT22;3967;48.702;9.326;2023-10-09T14:43:24;25.10;50.30
7844;DHT22;3967;48.702;9.326;2023-10-09T14:45:54;25.10;50.60
7844;DHT22;3967;48.702;9.326;2023-10-09T14:48:22;25.10;50.70
7844;DHT22;3967;48.702;9.326;2023-10-09T14:50:58;25.10;50.70
7844;DHT22;3967;48.702;9.326;2023-10-09T14:53:31;25.10;52.10
7844;DHT22;3967;48.702;9.326;2023-10-09T14:55:59;25.10;51.70
7844;DHT22;3967;48.702;9.326;2023-10-09T14:58:28;25.10;52.10
7844;DHT22;3967;48.702;9.326;2023-10-09T15:00:56;25.10;51.90
7844;DHT22;3967;48.702;9.326;2023-10-09T15:03:23;25.20;52.00
7844;DHT22;3967;48.702;9.326;2023-10-09T15:05:49;25.30;52.20
7844;DHT22;3967;48.702;9.326;2023-10-09T15:08:16;25.20;52.40
7844;DHT22;3967;48.702;9.326;2023-10-09T15:10:46;25.10;51.90
7844;DHT22;3967;48.702;9.326;2023-10-09T15:13:15;25.10;51.60
7844;DHT22;3967;48.702;9.326;2023-10-09T15:15:45;25.10;51.60
7844;DHT22;3967;48.702;9.326;2023-10-09T15:18:12;25.10;51.90
7844;DHT22;3967;48.702;9.326;2023-10-09T15:20:39;25.10;51.20
7844;DHT22;3967;48.702;9.326;2023-10-09T15:23:08;25.00;51.70
7844;DHT22;3967;48.702;9.326;2023-10-09T15:25:35;25.00;51.90
7844;DHT22;3967;48.702;9.326;2023-10-09T15:28:06;25.00;52.30
7844;DHT22;3967;48.702;9.326;2023-10-09T15:30:34;24.90;52.90
7844;DHT22;3967;48.702;9.326;2023-10-09T15:33:00;24.90;52.40
7844;DHT22;3967;48.702;9.326;2023-10-09T15:35:28;24.80;52.40
7844;DHT22;3967;48.702;9.326;2023-10-09T15:37:55;24.80;52.20
7844;DHT22;3967;48.702;9.326;2023-10-09T15:40:22;24.70;52.30
7844;DHT22;3967;48.702;9.326;2023-10-09T15:42:51;24.70;52.40
7844;DHT22;3967;48.702;9.326;2023-10-09T15:45:22;24.70;52.30
7844;DHT22;3967;48.702;9.326;2023-10-09T15:47:49;24.60;52.20
7844;DHT22;3967;48.702;9.326;2023-10-09T15:50:18;24.60;52.70
7844;DHT22;3967;48.702;9.326;2023-10-09T15:52:45;24.50;52.80
7844;DHT22;3967;48.702;9.326;2023-10-09T15:55:16;24.50;53.20
7844;DHT22;3967;48.702;9.326;2023-10-09T15:57:48;24.40;53.60
7844;DHT22;3967;48.702;9.326;2023-10-09T16:00:22;24.40;52.90
7844;DHT22;3967;48.702;9.326;2023-10-09T16:02:55;24.30;52.80
7844;DHT22;3967;48.702;9.326;2023-10-09T16:05:22;24.30;53.10
7844;DHT22;3967;48.702;9.326;2023-10-09T16:07:53;24.20;53.10
7844;DHT22;3967;48.702;9.326;2023-10-09T16:10:21;24.20;53.20
7844;DHT22;3967;48.702;9.326;2023-10-09T16:12:48;24.10;53.00
7844;DHT22;3967;48.702;9.326;2023-10-09T16:15:17;24.10;53.40
7844;DHT22;3967;48.702;9.326;2023-10-09T16:17:48;24.10;53.40
7844;DHT22;3967;48.702;9.326;2023-10-09T16:20:26;24.00;53.70
7844;DHT22;3967;48.702;9.326;2023-10-09T16:22:53;23.90;53.70
7844;DHT22;3967;48.702;9.326;2023-10-09T16:25:22;23.90;53.40
7844;DHT22;3967;48.702;9.326;2023-10-09T16:27:50;23.80;53.40
7844;DHT22;3967;48.702;9.326;2023-10-09T16:30:20;23.70;54.30
7844;DHT22;3967;48.702;9.326;2023-10-09T16:32:51;23.80;55.10
7844;DHT22;3967;48.702;9.326;2023-10-09T16:35:18;23.90;55.20
7844;DHT22;3967;48.702;9.326;2023-10-09T16:37:49;23.90;55.40
7844;DHT22;3967;48.702;9.326;2023-10-09T16:40:16;23.90;55.60
7844;DHT22;3967;48.702;9.326;2023-10-09T16:42:47;24.00;55.90
7844;DHT22;3967;48.702;9.326;2023-10-09T16:45:16;23.90;55.90
7844;DHT22;3967;48.702;9.326;2023-10-09T16:47:47;23.80;56.30
7844;DHT22;3967;48.702;9.326;2023-10-09T16:50:15;23.80;56.20
7844;DHT22;3967;48.702;9.326;2023-10-09T16:52:43;23.70;56.20
7844;DHT22;3967;48.702;9.326;2023-10-09T16:55:10;23.70;56.20
7844;DHT22;3967;48.702;9.326;2023-10-09T16:57:41;23.60;56.40
7844;DHT22;3967;48.702;9.326;2023-10-09T17:00:10;23.50;56.30
7844;DHT22;3967;48.702;9.326;2023-10-09T17:02:45;23.40;56.30
7844;DHT22;3967;48.702;9.326;2023-10-09T17:05:15;23.40;56.50